Archer City, Texas
Current Conditions -  °F | °C
As of 6:15 PM on Tuesday 25 Nov 2014 (Local Time) from KCWC Reporting Station
Clear Clear  
Wind Chill:   Ceiling: Unl
Heat Index:   Visibility: 10mi
Dew Point: -1°   Wind: 6mph
Humidity: 51%   Direction: 170°S
Pressure: 30.13"   Gusts: NA
Location:  33.6°N, 98.63°W
Report Text: KCWC 260015Z AUTO 17005KT 10SM CLR 08/M01 A3013 RMK AO2 T00841011
Loading
Personal Weather Stations






























Interactive Weather Map New forecast layout! Learn more

10-Day Weather Forecast

Advertisements
Track Severe Weather on mobile